Roseland, Kansas
Current Conditions -  °F | °C
As of 12:15 AM on Monday 22 Dec 2014 (Local Time) from KPTS Reporting Station
Overcast Overcast  
Wind Chill: 41°   Ceiling: 3200
Heat Index: 46°   Visibility: 10mi
Dew Point: 43°   Wind: 9mph
Humidity: 91%   Direction: 170°S
Pressure: 29.73"   Gusts: NA
Location:  37.2661°N, 94.8513°W
Report Text: KPTS 220615Z AUTO 17008KT 10SM SCT017 OVC032 08/06 A2973 RMK AO2 T00760062
Loading
Personal Weather Stations






























Interactive Weather Map New forecast layout! Learn more

10-Day Weather Forecast

Advertisements
Track Severe Weather on mobile